createdAt,value
2023-05-03T00:00:40.691Z,9.10
2023-05-03T00:03:10.169Z,9.20
2023-05-03T00:05:39.366Z,9.40
2023-05-03T00:08:08.058Z,9.40
2023-05-03T00:10:36.081Z,9.30
2023-05-03T00:13:04.727Z,9.30
2023-05-03T00:15:32.814Z,9.20
2023-05-03T00:18:01.120Z,9.20
2023-05-03T00:20:30.643Z,9.20
2023-05-03T00:22:59.152Z,9.00
2023-05-03T00:25:27.231Z,9.00
2023-05-03T00:27:55.832Z,8.80
2023-05-03T00:30:25.648Z,8.80
2023-05-03T00:32:54.205Z,9.00
2023-05-03T00:35:22.436Z,9.00
2023-05-03T00:37:52.503Z,8.90
2023-05-03T00:40:20.642Z,8.80
2023-05-03T00:42:49.315Z,8.80
2023-05-03T00:45:18.000Z,8.90
2023-05-03T00:47:46.533Z,9.00
2023-05-03T00:50:15.159Z,9.00
2023-05-03T00:52:43.764Z,9.00
2023-05-03T00:55:13.235Z,9.00
2023-05-03T00:57:41.463Z,9.10
2023-05-03T01:00:10.701Z,9.20
2023-05-03T01:02:39.731Z,9.20
2023-05-03T01:05:08.895Z,9.20
2023-05-03T01:07:39.489Z,9.20
2023-05-03T01:10:11.373Z,9.10
2023-05-03T01:12:46.536Z,9.00
2023-05-03T01:15:17.378Z,8.70
2023-05-03T01:17:49.379Z,8.40
2023-05-03T01:20:19.921Z,8.30
2023-05-03T01:22:50.757Z,8.20
2023-05-03T01:25:20.246Z,8.10
2023-05-03T01:27:49.432Z,8.20
2023-05-03T01:30:18.557Z,8.30
2023-05-03T01:32:50.172Z,8.40
2023-05-03T01:35:22.034Z,8.40
2023-05-03T01:37:50.790Z,8.50
2023-05-03T01:40:22.400Z,8.90
2023-05-03T01:42:51.274Z,8.80
2023-05-03T01:45:19.967Z,8.90
2023-05-03T01:47:48.089Z,9.10
2023-05-03T01:50:17.007Z,9.20
2023-05-03T01:52:45.198Z,9.30
2023-05-03T01:55:13.246Z,9.40
2023-05-03T01:57:43.040Z,9.50
2023-05-03T02:00:11.905Z,9.60
2023-05-03T02:02:42.876Z,9.60
2023-05-03T02:05:11.087Z,9.70
2023-05-03T02:07:39.604Z,9.70
2023-05-03T02:10:08.455Z,9.80
2023-05-03T02:12:36.754Z,9.80
2023-05-03T02:15:07.020Z,9.90
2023-05-03T02:17:37.707Z,9.90
2023-05-03T02:20:06.778Z,9.90
2023-05-03T02:22:35.147Z,9.90
2023-05-03T02:25:03.646Z,9.70
2023-05-03T02:27:32.031Z,9.70
2023-05-03T02:30:00.255Z,9.60
2023-05-03T02:32:41.064Z,9.60
2023-05-03T02:35:10.311Z,9.60
2023-05-03T02:37:38.926Z,9.50
2023-05-03T02:40:12.059Z,9.40
2023-05-03T02:42:41.558Z,9.40
2023-05-03T02:45:10.620Z,9.20
2023-05-03T02:47:38.785Z,9.20
2023-05-03T02:50:09.454Z,9.10
2023-05-03T02:52:40.682Z,9.00
2023-05-03T02:55:11.048Z,8.90
2023-05-03T02:57:42.346Z,8.80
2023-05-03T03:00:15.738Z,8.70
2023-05-03T03:02:45.054Z,8.60
2023-05-03T03:05:15.465Z,8.50
2023-05-03T03:07:48.481Z,8.40
2023-05-03T03:10:17.131Z,8.50
2023-05-03T03:12:45.576Z,8.60
2023-05-03T03:15:24.169Z,8.70
2023-05-03T03:17:57.614Z,8.80
2023-05-03T03:20:29.395Z,8.90
2023-05-03T03:22:58.226Z,9.00
2023-05-03T03:25:27.979Z,9.10
2023-05-03T03:27:58.032Z,9.10
2023-05-03T03:30:27.450Z,9.10
2023-05-03T03:33:06.369Z,9.00
2023-05-03T03:35:41.672Z,8.80
2023-05-03T03:38:10.968Z,8.60
2023-05-03T03:40:46.853Z,8.40
2023-05-03T03:43:14.987Z,7.90
2023-05-03T03:45:43.794Z,7.90
2023-05-03T03:48:15.868Z,7.90
2023-05-03T03:50:45.609Z,8.00
2023-05-03T03:53:15.565Z,8.10
2023-05-03T03:55:43.769Z,8.10
2023-05-03T03:58:12.584Z,8.00
2023-05-03T04:00:40.917Z,8.00
2023-05-03T04:03:15.321Z,8.00
2023-05-03T04:05:45.226Z,8.10
2023-05-03T04:08:13.806Z,8.20
2023-05-03T04:10:42.709Z,8.30
2023-05-03T04:13:11.423Z,8.40
2023-05-03T04:15:40.826Z,8.40
2023-05-03T04:18:09.196Z,8.60
2023-05-03T04:20:40.145Z,8.60
2023-05-03T04:23:11.970Z,8.60
2023-05-03T04:25:46.723Z,8.60
2023-05-03T04:28:16.425Z,8.70
2023-05-03T04:30:49.378Z,8.70
2023-05-03T04:33:25.122Z,8.70
2023-05-03T04:35:55.435Z,8.80
2023-05-03T04:38:26.090Z,8.90
2023-05-03T04:40:54.527Z,8.90
2023-05-03T04:43:24.341Z,9.00
2023-05-03T04:45:53.078Z,8.90
2023-05-03T04:48:24.647Z,8.80
2023-05-03T04:50:53.234Z,8.80
2023-05-03T04:53:24.845Z,8.90
2023-05-03T04:56:11.004Z,9.00
2023-05-03T04:58:41.489Z,9.10
2023-05-03T05:01:10.922Z,9.20
2023-05-03T05:03:39.448Z,9.30
2023-05-03T05:06:13.020Z,9.30
2023-05-03T05:08:44.963Z,9.40
2023-05-03T05:11:16.009Z,9.50
2023-05-03T05:13:44.181Z,9.60
2023-05-03T05:16:13.936Z,9.60
2023-05-03T05:18:46.262Z,9.70
2023-05-03T05:21:18.511Z,9.70
2023-05-03T05:23:48.236Z,9.80
2023-05-03T05:26:16.896Z,9.90
2023-05-03T05:28:44.933Z,10.00
2023-05-03T05:31:13.550Z,10.00
2023-05-03T05:33:42.279Z,10.00
2023-05-03T05:36:11.801Z,10.00
2023-05-03T05:38:40.795Z,10.10
2023-05-03T05:41:10.923Z,10.20
2023-05-03T05:43:41.306Z,10.20
2023-05-03T05:46:09.794Z,10.20
2023-05-03T05:48:39.393Z,10.30
2023-05-03T05:51:08.379Z,10.30
2023-05-03T05:53:36.995Z,10.30
2023-05-03T05:56:06.142Z,10.30
2023-05-03T05:58:38.606Z,10.30
2023-05-03T06:01:07.173Z,10.20
2023-05-03T06:03:38.411Z,10.20
2023-05-03T06:06:08.878Z,10.20
2023-05-03T06:08:37.877Z,10.20
2023-05-03T06:11:07.740Z,10.20
2023-05-03T06:13:40.926Z,10.20
2023-05-03T06:16:12.163Z,10.30
2023-05-03T06:18:40.900Z,10.30
2023-05-03T06:21:10.170Z,10.30
2023-05-03T06:23:40.510Z,10.20
2023-05-03T06:26:10.194Z,10.20
2023-05-03T06:28:40.105Z,10.20
2023-05-03T06:31:08.207Z,10.10
2023-05-03T06:33:36.806Z,10.00
2023-05-03T06:36:06.844Z,10.00
2023-05-03T06:38:36.360Z,10.00
2023-05-03T06:41:05.549Z,10.00
2023-05-03T06:43:34.615Z,10.00
2023-05-03T06:46:06.717Z,10.00
2023-05-03T06:48:36.175Z,10.00
2023-05-03T06:51:05.712Z,10.00
2023-05-03T06:53:34.086Z,10.00
2023-05-03T06:56:03.960Z,10.70
2023-05-03T06:58:32.155Z,9.90
2023-05-03T07:01:00.708Z,10.00
2023-05-03T07:03:30.182Z,10.10
2023-05-03T07:05:58.800Z,10.00
2023-05-03T07:08:26.948Z,10.00
2023-05-03T07:10:55.492Z,10.00
2023-05-03T07:13:23.584Z,10.00
2023-05-03T07:15:52.535Z,10.00
2023-05-03T07:18:20.695Z,10.10
2023-05-03T07:20:50.568Z,10.10
2023-05-03T07:23:18.634Z,10.00
2023-05-03T07:25:47.393Z,10.00
2023-05-03T07:28:15.435Z,10.00
2023-05-03T07:30:43.733Z,10.00
2023-05-03T07:33:12.194Z,10.00
2023-05-03T07:35:40.514Z,10.00
2023-05-03T07:38:10.291Z,10.10
2023-05-03T07:40:38.396Z,10.10
2023-05-03T07:43:07.015Z,10.20
2023-05-03T07:45:35.017Z,10.30
2023-05-03T07:48:04.425Z,10.30
2023-05-03T07:50:32.658Z,10.40
2023-05-03T07:53:01.180Z,10.50
2023-05-03T07:55:32.863Z,10.50
2023-05-03T07:58:01.402Z,10.60
2023-05-03T08:00:29.680Z,10.70
2023-05-03T08:02:58.898Z,10.80
2023-05-03T08:05:27.396Z,10.80
2023-05-03T08:07:56.020Z,10.80
2023-05-03T08:10:24.172Z,10.80
2023-05-03T08:12:54.019Z,10.80
2023-05-03T08:15:22.054Z,10.80
2023-05-03T08:17:51.288Z,10.80
2023-05-03T08:20:19.818Z,10.80
2023-05-03T08:22:47.869Z,10.90
2023-05-03T08:25:18.980Z,10.90
2023-05-03T08:27:49.243Z,10.90
2023-05-03T08:30:19.248Z,11.00
2023-05-03T08:32:51.572Z,10.90
2023-05-03T08:35:22.585Z,10.80
2023-05-03T08:37:50.783Z,10.80
2023-05-03T08:40:22.346Z,10.80
2023-05-03T08:42:51.090Z,10.80
2023-05-03T08:45:21.375Z,10.80
2023-05-03T08:47:54.548Z,10.90
2023-05-03T08:50:25.802Z,11.00
2023-05-03T08:52:54.011Z,11.00
2023-05-03T08:55:22.650Z,11.00
2023-05-03T08:57:51.732Z,11.00
2023-05-03T09:00:28.740Z,11.00
2023-05-03T09:02:57.210Z,11.10
2023-05-03T09:05:33.680Z,11.10
2023-05-03T09:08:04.832Z,11.10
2023-05-03T09:10:34.329Z,11.10
2023-05-03T09:13:03.332Z,11.10
2023-05-03T09:15:33.332Z,11.10
2023-05-03T09:18:08.159Z,11.00
2023-05-03T09:20:37.526Z,11.10
2023-05-03T09:23:05.735Z,11.10
2023-05-03T09:25:47.083Z,11.20
2023-05-03T09:28:15.864Z,11.20
2023-05-03T09:30:46.293Z,11.20
2023-05-03T09:33:20.389Z,11.20
2023-05-03T09:35:57.668Z,11.30
2023-05-03T09:38:29.079Z,11.30
2023-05-03T09:40:57.875Z,11.40
2023-05-03T09:43:26.342Z,11.40
2023-05-03T09:46:08.311Z,11.50
2023-05-03T09:48:37.475Z,11.50
2023-05-03T09:51:06.565Z,11.60
2023-05-03T09:53:36.114Z,11.70
2023-05-03T09:56:04.969Z,11.80
2023-05-03T09:58:35.346Z,11.80
2023-05-03T10:01:05.028Z,11.80
2023-05-03T10:03:39.346Z,11.90
2023-05-03T10:06:09.976Z,11.90
2023-05-03T10:08:41.713Z,11.90
2023-05-03T10:11:10.327Z,11.90
2023-05-03T10:13:38.444Z,11.90
2023-05-03T10:16:10.612Z,11.90
2023-05-03T10:18:44.787Z,11.80
2023-05-03T10:21:15.611Z,11.90
2023-05-03T10:23:59.255Z,12.00
2023-05-03T10:26:27.381Z,12.00
2023-05-03T10:28:56.076Z,12.10
2023-05-03T10:31:39.247Z,12.10
2023-05-03T10:34:20.809Z,12.20
2023-05-03T10:36:50.464Z,12.20
2023-05-03T10:39:19.563Z,12.40
2023-05-03T10:41:58.689Z,12.40
2023-05-03T10:44:27.420Z,12.50
2023-05-03T10:46:56.468Z,12.50
2023-05-03T10:49:27.236Z,12.60
2023-05-03T10:51:55.882Z,12.70
2023-05-03T10:54:24.954Z,12.80
2023-05-03T10:56:54.299Z,12.80
2023-05-03T10:59:24.049Z,12.90
2023-05-03T11:01:53.149Z,12.90
2023-05-03T11:04:33.951Z,13.00
2023-05-03T11:07:03.062Z,13.10
2023-05-03T11:09:32.515Z,13.20
2023-05-03T11:12:04.450Z,13.30
2023-05-03T11:14:34.146Z,13.30
2023-05-03T11:17:03.222Z,13.50
2023-05-03T11:19:34.271Z,13.70
2023-05-03T11:22:02.596Z,13.90
2023-05-03T11:24:31.060Z,14.00
2023-05-03T11:26:59.154Z,14.20
2023-05-03T11:29:27.759Z,14.40
2023-05-03T11:31:56.690Z,14.40
2023-05-03T11:34:24.946Z,14.50
2023-05-03T11:36:54.787Z,14.50
2023-05-03T11:39:22.817Z,14.50
2023-05-03T11:42:09.456Z,14.60
2023-05-03T11:44:37.666Z,14.60
2023-05-03T11:47:06.940Z,14.80
2023-05-03T11:49:35.310Z,14.90
2023-05-03T11:52:05.242Z,15.00
2023-05-03T11:54:33.367Z,15.10
2023-05-03T11:57:12.216Z,15.20
2023-05-03T11:59:41.046Z,15.30
2023-05-03T12:02:29.004Z,15.40
2023-05-03T12:04:58.030Z,15.50
2023-05-03T12:07:28.143Z,15.50
2023-05-03T12:10:10.158Z,15.60
2023-05-03T12:12:53.301Z,15.70
2023-05-03T12:15:30.157Z,15.70
2023-05-03T12:18:00.519Z,15.80
2023-05-03T12:23:15.551Z,16.00
2023-05-03T12:25:45.168Z,16.00
2023-05-03T12:28:20.357Z,16.10
2023-05-03T12:30:52.730Z,16.10
2023-05-03T12:33:22.863Z,16.20
2023-05-03T12:35:54.166Z,16.30
2023-05-03T12:38:25.480Z,16.40
2023-05-03T12:40:55.131Z,16.40
2023-05-03T12:43:24.041Z,16.50
2023-05-03T12:46:15.471Z,16.60
2023-05-03T12:48:46.226Z,16.60
2023-05-03T12:51:20.266Z,16.70
2023-05-03T12:53:55.257Z,16.80
2023-05-03T12:56:25.445Z,16.80
2023-05-03T13:04:14.797Z,17.00
2023-05-03T13:06:57.747Z,17.00
2023-05-03T13:10:12.361Z,17.10
2023-05-03T13:12:22.808Z,17.30
2023-05-03T13:14:51.346Z,17.50
2023-05-03T13:17:23.448Z,17.60
2023-05-03T13:19:54.313Z,17.70
2023-05-03T13:22:23.413Z,17.80
2023-05-03T13:24:52.825Z,17.90
2023-05-03T13:27:21.205Z,17.90
2023-05-03T13:29:49.774Z,18.00
2023-05-03T13:32:31.065Z,18.10
2023-05-03T13:34:59.259Z,18.10
2023-05-03T13:37:28.032Z,18.20
2023-05-03T13:39:57.646Z,18.20
2023-05-03T13:42:29.528Z,18.30
2023-05-03T13:44:58.865Z,18.30
2023-05-03T13:47:33.126Z,18.30
2023-05-03T13:50:13.205Z,18.30
2023-05-03T13:52:42.292Z,18.30
2023-05-03T13:55:12.065Z,18.20
2023-05-03T13:57:40.923Z,18.20
2023-05-03T14:00:11.516Z,18.20
2023-05-03T14:02:39.597Z,18.20
2023-05-03T14:05:11.252Z,18.20
2023-05-03T14:07:39.954Z,18.20
2023-05-03T14:10:09.421Z,18.20
2023-05-03T14:12:39.328Z,18.10
2023-05-03T14:15:08.584Z,18.00
2023-05-03T14:17:36.719Z,18.00
2023-05-03T14:20:08.411Z,17.90
2023-05-03T14:22:36.864Z,17.70
2023-05-03T14:25:08.648Z,17.70
2023-05-03T14:27:39.773Z,17.60
2023-05-03T14:30:10.797Z,17.60
2023-05-03T14:32:39.259Z,17.50
2023-05-03T14:35:07.821Z,17.60
2023-05-03T14:37:37.614Z,17.60
2023-05-03T14:40:06.891Z,17.60
2023-05-03T14:42:39.301Z,17.60
2023-05-03T14:45:17.474Z,17.60
2023-05-03T14:47:46.982Z,17.60
2023-05-03T14:50:16.100Z,17.60
2023-05-03T14:52:44.702Z,17.60
2023-05-03T14:55:12.733Z,17.50
2023-05-03T14:57:41.303Z,17.50
2023-05-03T15:00:14.230Z,17.50
2023-05-03T15:02:44.435Z,17.50
2023-05-03T15:05:12.899Z,17.50
2023-05-03T15:07:41.141Z,17.50
2023-05-03T15:10:09.990Z,17.40
2023-05-03T15:12:39.151Z,17.40
2023-05-03T15:15:10.094Z,17.40
2023-05-03T15:17:39.089Z,17.40
2023-05-03T15:20:14.038Z,17.30
2023-05-03T15:22:42.169Z,17.30
2023-05-03T15:25:11.920Z,17.30
2023-05-03T15:27:40.013Z,17.20
2023-05-03T15:30:09.425Z,17.20
2023-05-03T15:32:37.563Z,17.20
2023-05-03T15:35:06.723Z,17.20
2023-05-03T15:37:37.443Z,17.20
2023-05-03T15:40:07.062Z,17.30
2023-05-03T15:42:35.633Z,17.30
2023-05-03T15:45:05.396Z,17.30
2023-05-03T15:47:34.348Z,17.10
2023-05-03T15:50:02.906Z,17.00
2023-05-03T15:52:32.262Z,17.00
2023-05-03T15:55:01.877Z,16.90
2023-05-03T15:57:34.503Z,16.90
2023-05-03T16:00:06.418Z,16.80
2023-05-03T16:02:37.726Z,16.80
2023-05-03T16:05:09.170Z,16.70
2023-05-03T16:07:39.265Z,16.50
2023-05-03T16:10:10.984Z,16.40
2023-05-03T16:12:39.613Z,16.40
2023-05-03T16:15:08.849Z,16.50
2023-05-03T16:17:37.683Z,16.50
2023-05-03T16:20:09.069Z,16.50
2023-05-03T16:22:37.376Z,16.60
2023-05-03T16:25:07.491Z,16.60
2023-05-03T16:27:38.460Z,16.60
2023-05-03T16:30:07.210Z,16.50
2023-05-03T16:32:37.719Z,16.50
2023-05-03T16:35:05.940Z,16.40
2023-05-03T16:37:37.743Z,16.40
2023-05-03T16:40:10.138Z,16.50
2023-05-03T16:42:41.203Z,16.40
2023-05-03T16:45:10.473Z,16.40
2023-05-03T16:47:40.223Z,16.40
2023-05-03T16:50:08.956Z,16.40
2023-05-03T16:52:39.801Z,16.40
2023-05-03T16:55:09.120Z,16.40
2023-05-03T16:57:37.577Z,16.40
2023-05-03T17:00:09.794Z,16.40
2023-05-03T17:02:42.027Z,16.30
2023-05-03T17:05:12.654Z,16.30
2023-05-03T17:07:42.096Z,16.30
2023-05-03T17:10:10.561Z,16.30
2023-05-03T17:12:38.933Z,16.30
2023-05-03T17:15:10.289Z,16.20
2023-05-03T17:17:38.484Z,16.30
2023-05-03T17:20:13.069Z,16.30
2023-05-03T17:22:41.158Z,16.20
2023-05-03T17:25:10.687Z,16.20
2023-05-03T17:27:38.882Z,16.20
2023-05-03T17:30:09.701Z,16.10
2023-05-03T17:32:38.135Z,16.10
2023-05-03T17:35:07.071Z,16.10
2023-05-03T17:37:35.119Z,16.10
2023-05-03T17:40:05.618Z,16.10
2023-05-03T17:42:34.024Z,16.00
2023-05-03T17:45:04.313Z,16.00
2023-05-03T17:47:33.940Z,16.00
2023-05-03T17:50:02.865Z,16.00
2023-05-03T17:52:31.390Z,15.90
2023-05-03T17:54:59.893Z,15.90
2023-05-03T17:57:27.972Z,15.80
2023-05-03T17:59:57.389Z,15.80
2023-05-03T18:02:25.491Z,15.80
2023-05-03T18:04:57.157Z,15.70
2023-05-03T18:07:26.998Z,15.70
2023-05-03T18:09:59.728Z,15.70
2023-05-03T18:12:28.084Z,15.70
2023-05-03T18:14:59.888Z,15.60
2023-05-03T18:17:28.119Z,15.60
2023-05-03T18:19:57.706Z,15.50
2023-05-03T18:22:27.835Z,15.50
2023-05-03T18:24:56.721Z,15.50
2023-05-03T18:27:25.586Z,15.50
2023-05-03T18:29:53.985Z,15.40
2023-05-03T18:32:24.005Z,15.50
2023-05-03T18:34:52.613Z,15.40
2023-05-03T18:37:24.826Z,15.40
2023-05-03T18:39:53.240Z,15.40
2023-05-03T18:42:25.752Z,15.40
2023-05-03T18:44:54.606Z,15.40
2023-05-03T18:47:22.914Z,15.40
2023-05-03T18:49:53.499Z,15.40
2023-05-03T18:52:22.841Z,15.30
2023-05-03T18:54:52.307Z,15.30
2023-05-03T18:57:21.076Z,15.30
2023-05-03T18:59:59.955Z,15.20
2023-05-03T19:02:31.806Z,15.20
2023-05-03T19:05:00.901Z,15.20
2023-05-03T19:07:31.066Z,15.10
2023-05-03T19:10:01.043Z,15.20
2023-05-03T19:12:31.514Z,15.10
2023-05-03T19:15:01.488Z,15.00
2023-05-03T19:17:30.995Z,15.00
2023-05-03T19:19:59.805Z,15.00
2023-05-03T19:22:27.810Z,14.90
2023-05-03T19:24:56.910Z,14.90
2023-05-03T19:27:26.306Z,14.90
2023-05-03T19:29:55.784Z,14.90
2023-05-03T19:32:23.894Z,14.90
2023-05-03T19:34:52.323Z,14.80
2023-05-03T19:37:20.422Z,14.80
2023-05-03T19:39:51.887Z,14.80
2023-05-03T19:42:19.993Z,14.80
2023-05-03T19:44:49.967Z,14.80
2023-05-03T19:47:18.772Z,14.70
2023-05-03T19:49:47.091Z,14.70
2023-05-03T19:52:15.300Z,14.70
2023-05-03T19:54:43.684Z,14.70
2023-05-03T19:57:11.906Z,14.70
2023-05-03T19:59:41.764Z,14.60
2023-05-03T20:02:11.250Z,14.70
2023-05-03T20:04:40.058Z,14.70
2023-05-03T20:07:08.187Z,14.70
2023-05-03T20:09:36.941Z,14.60
2023-05-03T20:12:05.829Z,14.60
2023-05-03T20:14:34.065Z,14.50
2023-05-03T20:17:02.083Z,14.50
2023-05-03T20:19:31.665Z,14.40
2023-05-03T20:22:00.055Z,14.40
2023-05-03T20:24:28.162Z,14.40
2023-05-03T20:26:57.257Z,14.40
2023-05-03T20:29:25.336Z,14.40
2023-05-03T20:31:53.871Z,14.40
2023-05-03T20:34:21.994Z,14.40
2023-05-03T20:36:51.868Z,14.30
2023-05-03T20:39:19.973Z,14.30
2023-05-03T20:41:48.215Z,14.30
2023-05-03T20:44:16.294Z,14.30
2023-05-03T20:46:45.758Z,14.30
2023-05-03T20:49:13.779Z,14.30
2023-05-03T20:51:42.078Z,14.20
2023-05-03T20:54:11.785Z,14.20
2023-05-03T20:56:39.828Z,14.20
2023-05-03T20:59:08.334Z,14.20
2023-05-03T21:01:40.451Z,14.20
2023-05-03T21:04:08.860Z,14.10
2023-05-03T21:06:38.137Z,14.10
2023-05-03T21:09:06.992Z,14.10
2023-05-03T21:11:36.338Z,14.00
2023-05-03T21:14:04.635Z,14.00
2023-05-03T21:16:33.137Z,13.90
2023-05-03T21:19:01.385Z,13.90
2023-05-03T21:21:30.414Z,14.00
2023-05-03T21:23:58.949Z,13.90
2023-05-03T21:26:27.244Z,14.00
2023-05-03T21:28:56.670Z,13.90
2023-05-03T21:34:12.584Z,13.90
2023-05-03T21:36:40.715Z,13.90
2023-05-03T21:39:09.691Z,13.90
2023-05-03T21:41:37.836Z,13.90
2023-05-03T21:44:08.012Z,13.80
2023-05-03T21:46:36.290Z,13.80
2023-05-03T21:49:04.903Z,13.80
2023-05-03T21:51:33.401Z,13.80
2023-05-03T21:54:01.788Z,13.70
2023-05-03T21:56:29.985Z,13.70
2023-05-03T21:58:58.394Z,13.70
2023-05-03T22:01:28.401Z,13.70
2023-05-03T22:03:57.459Z,13.70
2023-05-03T22:06:25.720Z,13.70
2023-05-03T22:08:54.147Z,13.70
2023-05-03T22:11:22.733Z,13.60
2023-05-03T22:14:05.902Z,13.60
2023-05-03T22:16:37.754Z,13.50
2023-05-03T22:19:06.349Z,13.30
2023-05-03T22:21:35.556Z,13.10
2023-05-03T22:24:04.327Z,13.00
2023-05-03T22:26:32.818Z,13.00
2023-05-03T22:29:01.250Z,13.00
2023-05-03T22:31:30.299Z,12.90
2023-05-03T22:34:00.220Z,12.90
2023-05-03T22:36:28.713Z,12.90
2023-05-03T22:39:00.961Z,12.80
2023-05-03T22:41:29.126Z,12.80
2023-05-03T22:43:57.177Z,12.90
2023-05-03T22:46:25.916Z,12.90
2023-05-03T22:48:54.556Z,13.00
2023-05-03T22:51:24.897Z,12.90
2023-05-03T22:53:53.563Z,12.90
2023-05-03T22:56:21.618Z,12.80
2023-05-03T22:58:49.911Z,12.80
2023-05-03T23:01:18.399Z,12.80
2023-05-03T23:03:46.915Z,12.80
2023-05-03T23:06:15.788Z,12.80
2023-05-03T23:08:45.256Z,12.80
2023-05-03T23:11:13.700Z,12.90
2023-05-03T23:13:41.662Z,12.90
2023-05-03T23:16:10.512Z,12.90
2023-05-03T23:18:38.804Z,13.00
2023-05-03T23:21:06.867Z,13.00
2023-05-03T23:23:35.590Z,13.00
2023-05-03T23:26:05.045Z,13.00
2023-05-03T23:28:33.737Z,12.90
2023-05-03T23:31:02.133Z,13.00
2023-05-03T23:33:30.694Z,12.90
2023-05-03T23:35:58.898Z,12.90
2023-05-03T23:38:27.152Z,12.80
2023-05-03T23:40:55.268Z,12.80
2023-05-03T23:43:24.773Z,12.80
2023-05-03T23:45:52.912Z,12.80
2023-05-03T23:48:20.916Z,12.70
2023-05-03T23:50:48.933Z,12.70
2023-05-03T23:53:17.058Z,12.60
2023-05-03T23:55:45.083Z,12.50
2023-05-03T23:58:13.378Z,12.50
